createdAt,value
2019-02-05T00:02:07.021Z,1.00
2019-02-05T00:04:36.047Z,1.00
2019-02-05T00:07:05.416Z,1.00
2019-02-05T00:09:42.237Z,1.00
2019-02-05T00:12:30.377Z,1.00
2019-02-05T00:14:59.328Z,1.00
2019-02-05T00:17:28.253Z,1.00
2019-02-05T00:19:57.280Z,1.00
2019-02-05T00:22:26.869Z,1.00
2019-02-05T00:24:55.851Z,0.90
2019-02-05T00:27:24.859Z,1.00
2019-02-05T00:29:53.759Z,0.90
2019-02-05T00:32:23.251Z,0.90
2019-02-05T00:34:52.185Z,0.90
2019-02-05T00:37:21.803Z,0.90
2019-02-05T00:39:50.832Z,1.00
2019-02-05T00:42:19.833Z,1.00
2019-02-05T00:44:48.902Z,1.10
2019-02-05T00:47:17.868Z,1.10
2019-02-05T00:49:46.951Z,1.00
2019-02-05T00:52:35.464Z,1.00
2019-02-05T00:55:05.725Z,1.00
2019-02-05T00:57:34.679Z,1.00
2019-02-05T01:00:04.940Z,1.00
2019-02-05T01:02:34.254Z,0.90
2019-02-05T01:05:03.285Z,0.80
2019-02-05T01:07:32.300Z,0.90
2019-02-05T01:10:01.289Z,0.90
2019-02-05T01:12:30.351Z,0.90
2019-02-05T01:14:59.372Z,0.90
2019-02-05T01:17:28.996Z,0.90
2019-02-05T01:19:58.074Z,0.90
2019-02-05T01:22:27.115Z,0.90
2019-02-05T01:24:56.100Z,0.90
2019-02-05T01:27:25.162Z,0.80
2019-02-05T01:29:54.164Z,0.80
2019-02-05T01:32:23.560Z,0.90
2019-02-05T01:34:52.560Z,0.90
2019-02-05T01:37:40.694Z,0.90
2019-02-05T01:40:11.756Z,1.00
2019-02-05T01:42:41.200Z,0.90
2019-02-05T01:45:12.931Z,0.90
2019-02-05T01:47:44.320Z,0.90
2019-02-05T01:50:25.167Z,0.80
2019-02-05T01:52:54.415Z,0.70
2019-02-05T01:55:23.820Z,0.70
2019-02-05T01:57:53.577Z,0.70
2019-02-05T02:00:25.219Z,0.70
2019-02-05T02:02:54.255Z,0.70
2019-02-05T02:05:23.678Z,0.60
2019-02-05T02:07:52.721Z,0.60
2019-02-05T02:10:23.952Z,0.60
2019-02-05T02:12:53.068Z,0.50
2019-02-05T02:15:22.399Z,0.50
2019-02-05T02:17:51.442Z,0.60
2019-02-05T02:20:21.468Z,0.60
2019-02-05T02:22:50.904Z,0.60
2019-02-05T02:25:21.446Z,0.60
2019-02-05T02:27:51.376Z,0.50
2019-02-05T02:30:29.152Z,0.50
2019-02-05T02:32:58.175Z,0.50
2019-02-05T02:35:27.185Z,0.50
2019-02-05T02:38:15.760Z,0.50
2019-02-05T02:40:44.716Z,0.50
2019-02-05T02:43:13.719Z,0.50
2019-02-05T02:45:42.716Z,0.60
2019-02-05T02:48:12.324Z,0.60
2019-02-05T02:50:41.320Z,0.50
2019-02-05T02:53:10.367Z,0.50
2019-02-05T02:55:39.369Z,0.50
2019-02-05T02:58:08.393Z,0.50
2019-02-05T03:00:37.425Z,0.40
2019-02-05T03:03:06.961Z,0.30
2019-02-05T03:05:35.985Z,0.30
2019-02-05T03:08:05.351Z,0.40
2019-02-05T03:10:34.392Z,0.40
2019-02-05T03:13:03.505Z,0.40
2019-02-05T03:15:32.549Z,0.40
2019-02-05T03:18:01.580Z,0.40
2019-02-05T03:20:31.049Z,0.40
2019-02-05T03:23:00.297Z,0.50
2019-02-05T03:25:29.685Z,0.60
2019-02-05T03:27:58.754Z,0.60
2019-02-05T03:30:27.686Z,0.70
2019-02-05T03:32:57.138Z,0.60
2019-02-05T03:35:26.478Z,0.70
2019-02-05T03:37:56.172Z,0.60
2019-02-05T03:41:04.487Z,0.60
2019-02-05T03:43:45.688Z,0.50
2019-02-05T03:46:16.622Z,0.40
2019-02-05T03:48:47.914Z,0.40
2019-02-05T03:52:13.223Z,0.30
2019-02-05T03:55:37.062Z,0.20
2019-02-05T03:58:21.149Z,0.20
2019-02-05T04:01:06.102Z,0.10
2019-02-05T04:04:01.976Z,0.10
2019-02-05T04:06:59.285Z,0.00
2019-02-05T04:10:17.379Z,-0.10
2019-02-05T04:13:31.394Z,-0.20
2019-02-05T04:16:38.176Z,-0.30
2019-02-05T04:20:12.665Z,-0.20
2019-02-05T04:23:05.029Z,-0.10
2019-02-05T04:26:24.315Z,0.00
2019-02-05T04:29:16.016Z,0.00
2019-02-05T04:32:10.937Z,0.00
2019-02-05T04:35:23.904Z,0.00
2019-02-05T04:38:22.165Z,0.00
2019-02-05T04:41:21.346Z,0.00
2019-02-05T04:44:18.016Z,0.00
2019-02-05T04:47:31.053Z,0.00
2019-02-05T04:50:26.945Z,-0.10
2019-02-05T04:53:39.152Z,-0.10
2019-02-05T04:56:53.099Z,-0.20
2019-02-05T04:59:59.137Z,-0.20
2019-02-05T05:02:50.677Z,-0.30
2019-02-05T05:05:40.565Z,-0.30
2019-02-05T05:08:43.260Z,-0.40
2019-02-05T05:11:12.707Z,-0.40
2019-02-05T05:13:41.741Z,-0.50
2019-02-05T05:16:10.769Z,-0.50
2019-02-05T05:18:39.729Z,-0.60
2019-02-05T05:21:08.747Z,-0.60
2019-02-05T05:23:37.784Z,-0.60
2019-02-05T05:26:06.812Z,-0.60
2019-02-05T05:28:39.509Z,-0.60
2019-02-05T05:31:08.916Z,-0.70
2019-02-05T05:33:37.991Z,-0.70
2019-02-05T05:36:07.060Z,-0.70
2019-02-05T05:38:36.081Z,-0.70
2019-02-05T05:41:05.142Z,-0.70
2019-02-05T05:43:34.589Z,-0.70
2019-02-05T05:46:22.828Z,-0.70
2019-02-05T05:48:51.723Z,-0.70
2019-02-05T05:51:20.743Z,-0.80
2019-02-05T05:53:49.757Z,-0.80
2019-02-05T05:56:19.284Z,-0.90
2019-02-05T05:58:48.291Z,-0.90
2019-02-05T06:01:17.396Z,-0.90
2019-02-05T06:03:46.416Z,-0.90
2019-02-05T06:06:15.447Z,-1.00
2019-02-05T06:08:44.479Z,-1.00
2019-02-05T06:11:32.585Z,-1.00
2019-02-05T06:14:01.573Z,-1.00
2019-02-05T06:16:30.614Z,-1.00
2019-02-05T06:18:59.672Z,-1.00
2019-02-05T06:21:28.707Z,-1.00
2019-02-05T06:23:57.821Z,-1.00
2019-02-05T06:26:34.632Z,-1.00
2019-02-05T06:29:03.986Z,-1.00
2019-02-05T06:31:33.044Z,-1.10
2019-02-05T06:34:05.069Z,-1.00
2019-02-05T06:36:34.088Z,-1.10
2019-02-05T06:39:04.994Z,-1.00
2019-02-05T06:41:35.933Z,-1.00
2019-02-05T06:44:05.392Z,-1.10
2019-02-05T06:46:37.281Z,-1.20
2019-02-05T06:49:06.320Z,-1.20
2019-02-05T06:51:35.350Z,-1.30
2019-02-05T06:54:05.250Z,-1.30
2019-02-05T06:56:34.282Z,-1.30
2019-02-05T06:59:03.326Z,-1.40
2019-02-05T07:01:32.387Z,-1.40
2019-02-05T07:04:13.396Z,-1.50
2019-02-05T07:07:02.116Z,-1.40
2019-02-05T07:09:31.131Z,-1.40
2019-02-05T07:12:00.160Z,-1.40
2019-02-05T07:14:29.220Z,-1.40
2019-02-05T07:16:58.261Z,-1.40
2019-02-05T07:19:27.966Z,-1.40
2019-02-05T07:21:57.048Z,-1.40
2019-02-05T07:24:26.081Z,-1.40
2019-02-05T07:26:55.145Z,-1.30
2019-02-05T07:29:24.336Z,-1.40
2019-02-05T07:31:53.404Z,-1.30
2019-02-05T07:34:22.445Z,-1.40
2019-02-05T07:36:51.893Z,-1.40
2019-02-05T07:39:21.009Z,-1.40
2019-02-05T07:41:50.157Z,-1.40
2019-02-05T07:44:19.195Z,-1.30
2019-02-05T07:46:48.156Z,-1.30
2019-02-05T07:49:17.172Z,-1.30
2019-02-05T07:51:46.278Z,-1.30
2019-02-05T07:54:15.852Z,-1.30
2019-02-05T07:56:44.981Z,-1.30
2019-02-05T07:59:14.100Z,-1.20
2019-02-05T08:01:43.259Z,-1.20
2019-02-05T08:04:12.390Z,-1.10
2019-02-05T08:06:41.486Z,-1.00
2019-02-05T08:09:11.312Z,-1.00
2019-02-05T08:11:41.509Z,-0.90
2019-02-05T08:14:29.859Z,-0.80
2019-02-05T08:16:59.038Z,-0.70
2019-02-05T08:19:28.017Z,-0.60
2019-02-05T08:21:57.052Z,-0.60
2019-02-05T08:24:45.176Z,-0.60
2019-02-05T08:27:14.304Z,-0.60
2019-02-05T08:29:43.404Z,-0.50
2019-02-05T08:32:12.486Z,-0.40
2019-02-05T08:34:41.517Z,-0.30
2019-02-05T08:37:10.587Z,-0.30
2019-02-05T08:39:39.763Z,-0.20
2019-02-05T08:42:08.851Z,-0.10
2019-02-05T08:44:37.977Z,0.00
2019-02-05T08:47:07.029Z,0.10
2019-02-05T08:49:38.942Z,0.20
2019-02-05T08:52:08.404Z,0.20
2019-02-05T08:54:37.750Z,0.30
2019-02-05T08:57:06.785Z,0.30
2019-02-05T08:59:35.914Z,0.40
2019-02-05T09:02:05.621Z,0.40
2019-02-05T09:04:34.661Z,0.50
2019-02-05T09:07:03.784Z,0.50
2019-02-05T09:09:32.731Z,0.50
2019-02-05T09:12:02.139Z,0.60
2019-02-05T09:14:31.165Z,0.60
2019-02-05T09:17:00.327Z,0.70
2019-02-05T09:19:29.285Z,0.90
2019-02-05T09:21:58.411Z,1.00
2019-02-05T09:24:27.357Z,1.20
2019-02-05T09:26:56.398Z,1.30
2019-02-05T09:29:33.229Z,1.50
2019-02-05T09:31:56.561Z,1.60
2019-02-05T09:34:26.010Z,1.50
2019-02-05T09:36:55.073Z,1.50
2019-02-05T09:39:24.084Z,1.50
2019-02-05T09:41:53.132Z,1.50
2019-02-05T09:44:22.456Z,1.50
2019-02-05T09:46:54.684Z,1.50
2019-02-05T09:49:23.815Z,1.50
2019-02-05T09:51:52.915Z,1.50
2019-02-05T09:54:22.005Z,1.60
2019-02-05T09:56:51.004Z,1.70
2019-02-05T09:59:20.100Z,1.70
2019-02-05T10:01:49.632Z,1.60
2019-02-05T10:04:18.714Z,1.60
2019-02-05T10:06:50.031Z,1.50
2019-02-05T10:09:18.468Z,1.60
2019-02-05T10:11:47.484Z,1.60
2019-02-05T10:14:16.472Z,1.70
2019-02-05T10:16:45.592Z,1.70
2019-02-05T10:19:14.645Z,1.70
2019-02-05T10:21:43.760Z,1.80
2019-02-05T10:24:12.724Z,1.90
2019-02-05T10:26:41.780Z,2.00
2019-02-05T10:29:10.761Z,2.10
2019-02-05T10:31:39.776Z,2.50
2019-02-05T10:34:09.408Z,2.80
2019-02-05T10:36:38.541Z,3.00
2019-02-05T10:39:10.102Z,3.20
2019-02-05T10:41:39.274Z,3.70
2019-02-05T10:44:08.463Z,5.00
2019-02-05T10:46:37.657Z,6.60
2019-02-05T10:49:06.760Z,8.50
2019-02-05T10:51:39.153Z,9.90
2019-02-05T10:54:08.242Z,11.00
2019-02-05T10:56:37.311Z,12.20
2019-02-05T10:59:06.552Z,13.70
2019-02-05T11:01:35.689Z,15.50
2019-02-05T11:04:04.785Z,16.70
2019-02-05T11:06:34.261Z,17.50
2019-02-05T11:09:04.915Z,18.60
2019-02-05T11:11:33.920Z,19.60
2019-02-05T11:14:03.078Z,20.50
2019-02-05T11:16:32.071Z,20.90
2019-02-05T11:19:04.198Z,21.70
2019-02-05T11:21:33.292Z,22.50
2019-02-05T11:24:02.423Z,22.20
2019-02-05T11:26:31.618Z,21.80
2019-02-05T11:29:01.088Z,22.00
2019-02-05T11:31:30.191Z,22.20
2019-02-05T11:33:59.279Z,22.70
2019-02-05T11:36:28.344Z,23.30
2019-02-05T11:38:57.883Z,23.60
2019-02-05T11:41:27.224Z,24.10
2019-02-05T11:43:56.447Z,24.30
2019-02-05T11:46:25.539Z,23.80
2019-02-05T11:48:54.635Z,23.90
2019-02-05T11:51:23.940Z,24.20
2019-02-05T11:53:53.104Z,23.80
2019-02-05T11:56:22.769Z,23.60
2019-02-05T11:58:53.338Z,23.80
2019-02-05T12:01:25.670Z,23.80
2019-02-05T12:03:54.907Z,24.40
2019-02-05T12:06:24.114Z,24.50
2019-02-05T12:08:53.548Z,24.70
2019-02-05T12:11:23.173Z,25.50
2019-02-05T12:13:52.267Z,26.00
2019-02-05T12:16:21.322Z,26.20
2019-02-05T12:18:50.361Z,26.90
2019-02-05T12:21:19.422Z,26.40
2019-02-05T12:23:48.455Z,26.00
2019-02-05T12:26:17.553Z,25.80
2019-02-05T12:28:46.622Z,25.60
2019-02-05T12:31:15.660Z,25.20
2019-02-05T12:33:44.673Z,25.00
2019-02-05T12:36:13.717Z,24.90
2019-02-05T12:38:42.740Z,25.20
2019-02-05T12:41:11.796Z,24.80
2019-02-05T12:43:40.814Z,24.80
2019-02-05T12:46:10.228Z,24.80
2019-02-05T12:48:39.275Z,24.70
2019-02-05T12:51:08.400Z,24.50
2019-02-05T12:53:37.442Z,24.30
2019-02-05T12:56:06.708Z,24.30
2019-02-05T12:58:35.753Z,24.20
2019-02-05T13:01:05.337Z,24.10
2019-02-05T13:03:34.488Z,24.30
2019-02-05T13:06:03.635Z,24.40
2019-02-05T13:08:32.720Z,24.50
2019-02-05T13:11:01.747Z,24.40
2019-02-05T13:13:30.817Z,24.10
2019-02-05T13:15:59.877Z,23.90
2019-02-05T13:18:28.925Z,23.50
2019-02-05T13:20:57.978Z,23.00
2019-02-05T13:23:27.058Z,22.30
2019-02-05T13:25:56.081Z,22.20
2019-02-05T13:28:25.075Z,22.00
2019-02-05T13:30:54.136Z,21.90
2019-02-05T13:33:23.419Z,21.90
2019-02-05T13:35:52.454Z,21.80
2019-02-05T13:38:21.617Z,21.30
2019-02-05T13:40:50.936Z,20.50
2019-02-05T13:43:19.968Z,20.00
2019-02-05T13:45:49.273Z,19.80
2019-02-05T13:48:18.295Z,19.60
2019-02-05T13:50:47.356Z,19.40
2019-02-05T13:53:18.533Z,19.20
2019-02-05T13:55:47.623Z,18.10
2019-02-05T13:58:16.674Z,17.60
2019-02-05T14:00:51.166Z,16.80
2019-02-05T14:03:20.259Z,15.40
2019-02-05T14:05:49.840Z,13.80
2019-02-05T14:08:18.925Z,12.50
2019-02-05T14:10:49.029Z,11.10
2019-02-05T14:13:18.415Z,10.50
2019-02-05T14:15:50.377Z,9.60
2019-02-05T14:18:22.605Z,8.90
2019-02-05T14:20:50.194Z,8.40
2019-02-05T14:23:19.245Z,8.00
2019-02-05T14:25:48.310Z,7.60
2019-02-05T14:28:17.401Z,7.30
2019-02-05T14:30:52.295Z,7.00
2019-02-05T14:33:22.648Z,6.70
2019-02-05T14:35:51.655Z,6.40
2019-02-05T14:38:20.819Z,6.20
2019-02-05T14:40:49.900Z,6.00
2019-02-05T14:43:18.984Z,5.90
2019-02-05T14:45:48.029Z,6.00
2019-02-05T14:48:17.056Z,6.00
2019-02-05T14:50:47.019Z,6.00
2019-02-05T14:53:16.355Z,6.00
2019-02-05T14:55:45.369Z,5.70
2019-02-05T14:58:16.284Z,5.40
2019-02-05T15:00:45.531Z,5.30
2019-02-05T15:03:15.305Z,5.00
2019-02-05T15:05:45.617Z,4.70
2019-02-05T15:08:16.168Z,4.50
2019-02-05T15:10:45.285Z,4.20
2019-02-05T15:13:20.501Z,4.00
2019-02-05T15:15:49.670Z,3.90
2019-02-05T15:18:20.805Z,3.80
2019-02-05T15:20:50.855Z,3.70
2019-02-05T15:23:20.649Z,3.60
2019-02-05T15:25:50.446Z,3.50
2019-02-05T15:28:19.633Z,3.40
2019-02-05T15:30:51.005Z,3.20
2019-02-05T15:33:55.211Z,3.20
2019-02-05T15:36:32.002Z,3.10
2019-02-05T15:39:01.216Z,3.00
2019-02-05T15:41:33.625Z,2.90
2019-02-05T15:44:02.622Z,2.80
2019-02-05T15:46:32.599Z,2.80
2019-02-05T15:49:01.638Z,2.80
2019-02-05T15:51:33.065Z,2.70
2019-02-05T15:54:02.200Z,2.70
2019-02-05T15:56:31.544Z,2.60
2019-02-05T15:59:00.633Z,2.50
2019-02-05T16:01:29.881Z,2.40
2019-02-05T16:03:58.989Z,2.30
2019-02-05T16:06:28.591Z,2.30
2019-02-05T16:08:57.680Z,2.20
2019-02-05T16:11:26.740Z,2.10
2019-02-05T16:13:55.889Z,2.00
2019-02-05T16:16:25.498Z,1.90
2019-02-05T16:18:54.626Z,1.90
2019-02-05T16:21:23.692Z,1.80
2019-02-05T16:23:52.744Z,1.70
2019-02-05T16:26:21.800Z,1.50
2019-02-05T16:28:50.892Z,1.40
2019-02-05T16:31:20.344Z,1.30
2019-02-05T16:33:49.318Z,1.20
2019-02-05T16:36:18.334Z,1.20
2019-02-05T16:38:47.477Z,1.10
2019-02-05T16:41:16.444Z,1.10
2019-02-05T16:43:45.591Z,1.00
2019-02-05T16:46:14.827Z,1.00
2019-02-05T16:48:43.849Z,0.90
2019-02-05T16:51:13.240Z,0.90
2019-02-05T16:53:42.259Z,0.90
2019-02-05T16:56:11.332Z,0.90
2019-02-05T16:58:40.393Z,0.80
2019-02-05T17:01:09.409Z,0.80
2019-02-05T17:03:38.456Z,0.80
2019-02-05T17:06:07.569Z,0.80
2019-02-05T17:08:36.625Z,0.80
2019-02-05T17:11:05.628Z,0.70
2019-02-05T17:13:34.688Z,0.70
2019-02-05T17:16:04.248Z,0.60
2019-02-05T17:18:33.579Z,0.60
2019-02-05T17:21:02.621Z,0.60
2019-02-05T17:23:31.627Z,0.60
2019-02-05T17:26:00.683Z,0.60
2019-02-05T17:28:29.680Z,0.60
2019-02-05T17:30:58.637Z,0.60
2019-02-05T17:33:28.230Z,0.60
2019-02-05T17:35:57.273Z,0.70
2019-02-05T17:38:26.349Z,0.80
2019-02-05T17:40:55.400Z,0.80
2019-02-05T17:43:24.377Z,0.90
2019-02-05T17:45:53.395Z,0.90
2019-02-05T17:48:22.932Z,0.90
2019-02-05T17:50:51.961Z,1.00
2019-02-05T17:53:20.998Z,1.00
2019-02-05T17:55:49.961Z,1.00
2019-02-05T17:58:19.058Z,1.00
2019-02-05T18:00:50.266Z,1.00
2019-02-05T18:03:19.713Z,1.00
2019-02-05T18:05:48.737Z,1.00
2019-02-05T18:08:18.948Z,1.00
2019-02-05T18:10:47.956Z,1.00
2019-02-05T18:13:16.983Z,1.00
2019-02-05T18:15:46.050Z,0.90
2019-02-05T18:18:15.567Z,0.80
2019-02-05T18:20:48.463Z,0.80
2019-02-05T18:23:17.572Z,0.80
2019-02-05T18:25:46.597Z,0.80
2019-02-05T18:28:15.637Z,0.90
2019-02-05T18:30:44.699Z,0.90
2019-02-05T18:33:14.196Z,1.00
2019-02-05T18:35:43.908Z,1.00
2019-02-05T18:38:14.716Z,1.10
2019-02-05T18:40:43.728Z,1.10
2019-02-05T18:43:12.768Z,1.10
2019-02-05T18:45:41.832Z,1.10
2019-02-05T18:48:11.290Z,1.10
2019-02-05T18:50:41.172Z,1.20
2019-02-05T18:53:11.906Z,1.20
2019-02-05T18:55:41.148Z,1.20
2019-02-05T18:58:10.301Z,1.20
2019-02-05T19:00:40.768Z,1.20
2019-02-05T19:03:15.548Z,1.20
2019-02-05T19:05:40.873Z,1.20
2019-02-05T19:08:10.120Z,1.30
2019-02-05T19:10:39.129Z,1.30
2019-02-05T19:13:08.464Z,1.30
2019-02-05T19:15:38.111Z,1.30
2019-02-05T19:18:08.105Z,1.30
2019-02-05T19:20:37.164Z,1.30
2019-02-05T19:23:07.766Z,1.30
2019-02-05T19:25:51.965Z,1.30
2019-02-05T19:28:24.366Z,1.30
2019-02-05T19:30:55.393Z,1.40
2019-02-05T19:33:27.133Z,1.40
2019-02-05T19:35:55.141Z,1.50
2019-02-05T19:38:24.110Z,1.50
2019-02-05T19:40:57.553Z,1.50
2019-02-05T19:43:23.924Z,1.60
2019-02-05T19:46:11.388Z,1.60
2019-02-05T19:48:45.782Z,1.50
2019-02-05T19:51:33.945Z,1.50
2019-02-05T19:54:03.010Z,1.40
2019-02-05T19:56:38.129Z,1.40
2019-02-05T19:59:02.800Z,1.40
2019-02-05T20:01:31.817Z,1.40
2019-02-05T20:04:00.828Z,1.50
2019-02-05T20:06:48.957Z,1.50
2019-02-05T20:09:17.907Z,1.60
2019-02-05T20:11:47.042Z,1.60
2019-02-05T20:14:16.039Z,1.50
2019-02-05T20:16:45.052Z,1.60
2019-02-05T20:19:14.072Z,1.50
2019-02-05T20:21:43.424Z,1.50
2019-02-05T20:24:12.513Z,1.50
2019-02-05T20:26:41.461Z,1.50
2019-02-05T20:29:10.454Z,1.50
2019-02-05T20:31:39.480Z,1.50
2019-02-05T20:34:08.472Z,1.60
2019-02-05T20:36:40.233Z,1.50
2019-02-05T20:39:13.903Z,1.40
2019-02-05T20:41:42.952Z,1.40
2019-02-05T20:44:11.884Z,1.30
2019-02-05T20:46:40.827Z,1.30
2019-02-05T20:49:09.832Z,1.20
2019-02-05T20:51:57.960Z,1.10
2019-02-05T20:54:26.918Z,1.00
2019-02-05T20:56:55.871Z,0.90
2019-02-05T20:59:24.916Z,0.90
2019-02-05T21:01:56.129Z,0.80
2019-02-05T21:04:24.590Z,0.70
2019-02-05T21:06:53.707Z,0.60
2019-02-05T21:09:22.900Z,0.50
2019-02-05T21:11:51.924Z,0.50
2019-02-05T21:14:20.963Z,0.50
2019-02-05T21:16:49.912Z,0.50
2019-02-05T21:19:18.912Z,0.40
2019-02-05T21:21:48.544Z,0.30
2019-02-05T21:24:17.615Z,0.30
2019-02-05T21:26:46.645Z,0.30
2019-02-05T21:29:15.668Z,0.30
2019-02-05T21:31:45.019Z,0.20
2019-02-05T21:34:15.977Z,0.10
2019-02-05T21:36:44.807Z,0.10
2019-02-05T21:39:14.108Z,0.10
2019-02-05T21:41:43.129Z,0.10
2019-02-05T21:44:12.139Z,0.10
2019-02-05T21:46:41.076Z,0.10
2019-02-05T21:49:10.062Z,0.00
2019-02-05T21:51:43.028Z,-0.10
2019-02-05T21:54:09.892Z,-0.10
2019-02-05T21:56:38.924Z,-0.10
2019-02-05T21:59:10.112Z,-0.10
2019-02-05T22:01:39.242Z,0.00
2019-02-05T22:04:10.188Z,0.00
2019-02-05T22:06:39.067Z,0.00
2019-02-05T22:09:11.352Z,0.10
2019-02-05T22:11:40.966Z,0.10
2019-02-05T22:14:10.624Z,0.00
2019-02-05T22:16:39.632Z,-0.10
2019-02-05T22:19:09.246Z,0.10
2019-02-05T22:21:38.251Z,0.10
2019-02-05T22:24:07.262Z,0.10
2019-02-05T22:26:36.277Z,0.10
2019-02-05T22:29:08.920Z,0.00
2019-02-05T22:31:37.966Z,0.10
2019-02-05T22:34:07.463Z,0.10
2019-02-05T22:36:36.487Z,0.20
2019-02-05T22:39:08.691Z,0.20
2019-02-05T22:41:37.768Z,0.20
2019-02-05T22:44:07.104Z,0.20
2019-02-05T22:46:36.120Z,0.30
2019-02-05T22:49:05.655Z,0.20
2019-02-05T22:51:34.762Z,0.20
2019-02-05T22:54:03.788Z,0.10
2019-02-05T22:56:32.870Z,0.10
2019-02-05T22:59:02.317Z,0.20
2019-02-05T23:01:52.744Z,0.20
2019-02-05T23:04:50.782Z,0.00
2019-02-05T23:07:23.939Z,-0.20
2019-02-05T23:10:11.700Z,-0.20
2019-02-05T23:13:06.200Z,-0.20
2019-02-05T23:15:35.628Z,-0.10
2019-02-05T23:18:05.302Z,-0.20
2019-02-05T23:20:37.382Z,-0.20
2019-02-05T23:23:06.389Z,-0.20
2019-02-05T23:25:35.420Z,-0.10
2019-02-05T23:28:11.861Z,-0.10
2019-02-05T23:30:40.835Z,-0.10
2019-02-05T23:33:10.509Z,-0.20
2019-02-05T23:35:39.636Z,-0.20
2019-02-05T23:38:08.664Z,-0.30
2019-02-05T23:40:37.671Z,-0.30
2019-02-05T23:43:07.180Z,-0.20
2019-02-05T23:45:36.206Z,-0.30
2019-02-05T23:48:05.727Z,-0.30
2019-02-05T23:50:34.789Z,-0.30
2019-02-05T23:53:04.126Z,-0.40
2019-02-05T23:55:33.136Z,-0.50
2019-02-05T23:58:02.132Z,-0.50
